Terminal Aerodrome Forecast
Issued by NWS Corpus Christi, TX

Current Version | Previous Version | Text Only | Print | Product List | Glossary Off
Versions: 1 2 3 4 5 6 7 8 9 10 11 12 13 14 15 16 17 18

000
FTUS44 KCRP 250500
TAFCRP
TAF
KCRP 250526Z 2506/2606 12007KT 5SM BR OVC007
     FM250900 06005KT 3SM BR OVC004
      TEMPO 2510/2514 1SM BR OVC002
     FM251600 09008KT P6SM BKN010
     FM251900 10012KT P6SM SCT035 SCT250
     FM260300 13008KT P6SM SCT010=

USA.gov is the U.S. government's official web portal to all federal, state and local government web resources and services.